Colorado Springs, CO (80941)

6:16 AM MST on February 28, 2015 (GMT -0700)
Palmer Park | Change Station
CLOSE
Current Station
Personal Weather Station
Location: Colorado Springs, CO
Elevation: 6381 ft
Nearby Weather Stations

Elev 6381 ft 38.87 °N, 104.77 °W | Updated 2 minutes ago

Overcast
Overcast
1.9 °F
Feels Like 2 °F
N
2.2
Wind Variable Wind from SW

Today
High -- | Low -- °F
--% Chance of Precip.
Yesterday
High -- | Low -- °F
Precip. -- in
6:33 AM 5:50 PM
Waxing Gibbous, 77% visible
Pressure 30.18 in
Visibility 6.0 miles
Clouds Few 700 ft
Few 18000 ft
Windchill 2 °F
Dew Point 0 °F
Humidity 92%
Rainfall 0.00 in
Snow Depth Not available.
UV 0 out of 12
Pollen .70 out of 12
Air Quality Not available.
Flu Activity Not available.
METAR KCOS 281254Z 35005KT 6SM BR FEW007 FEW180 M18/M21 A2985 RMK AO2 SLP219 LW CLDS ALG MTNS W-NW T11831206

More Conditions Fewer Conditions

Pressure 30.18 in
Visibility 6.0 miles
Clouds Few 700 ft
Few 18000 ft
Windchill 2 °F
Dew Point 0 °F
Humidity 92%
Rainfall 0.00 in
Snow Depth Not available.
UV 0 out of 12
Pollen .70 out of 12
Air Quality Not available.
Flu Activity Not available.
METAR KCOS 281254Z 35005KT 6SM BR FEW007 FEW180 M18/M21 A2985 RMK AO2 SLP219 LW CLDS ALG MTNS W-NW T11831206

More Conditions Fewer Conditions

10-Day Weather Forecast

Almanac

Astronomy

Feb. 28, 2015 Rise Set
Actual Time
Civil Twilight
Nautical Twilight
Astronomical Twilight
Moon
Length of Visible Light
Length of Day
Tomorrow will be .
, % of the Moon is Illuminated

Today's Extremes

State Highs State Lows

Community

WunderPhotos

Upload Photos

1,801,004 photos uploaded!

WunderBlogs® & News

Nearby

Air Quality

  Air Quality AQ Index Pollutant
Not available.

Snow Depth

Station Depth Elevation

Earthquake Activity

City Distance Mag. Time & Date
Minimum magnitude displayed is 2.5.

Coastal Water Temperatures

Place Temperature

Nearby Weather Stations